Time;durP1;ratioP1;P1;durP2;ratioP2;P2;SDS_P1;SDS_P2;PMS_P1;PMS_P2;Temp;Humidity;BMP_temperature;BMP_pressure;BME280_temperature;BME280_humidity;BME280_pressure;Samples;Min_cycle;Max_cycle;Signal;HPM_P1;HPM_P2
2021/05/26 00:01:20;;;;;;;9.97;6.43;;;9.60;99.90;;;;;;5037969;28;20581;-74
2021/05/26 00:03:46;;;;;;;7.50;6.03;;;9.50;99.90;;;;;;5040823;28;20206;-74
2021/05/26 00:06:13;;;;;;;7.23;5.53;;;9.50;99.90;;;;;;5045148;28;20669;-74
2021/05/26 00:08:40;;;;;;;6.80;5.57;;;9.50;99.90;;;;;;5038397;28;20576;-74
2021/05/26 00:11:08;;;;;;;6.07;5.10;;;9.50;99.90;;;;;;5043143;28;20228;-74
2021/05/26 00:13:35;;;;;;;6.43;5.50;;;9.50;99.90;;;;;;5052207;28;20252;-74
2021/05/26 00:16:02;;;;;;;8.93;5.10;;;9.50;99.90;;;;;;5052873;28;20199;-74
2021/05/26 00:18:28;;;;;;;6.03;5.03;;;9.60;99.90;;;;;;5053260;28;20270;-74
2021/05/26 00:20:54;;;;;;;5.77;4.70;;;9.50;99.90;;;;;;5051613;28;20668;-74
2021/05/26 00:23:21;;;;;;;5.07;4.57;;;9.60;99.90;;;;;;5053523;28;20205;-74
2021/05/26 00:25:49;;;;;;;7.13;4.77;;;9.50;99.90;;;;;;5051886;28;20660;-74
2021/05/26 00:28:16;;;;;;;7.57;4.93;;;9.50;99.90;;;;;;5051190;28;20645;-74
2021/05/26 00:30:45;;;;;;;9.00;5.33;;;9.50;99.90;;;;;;5051453;28;20205;-74
2021/05/26 00:33:12;;;;;;;5.17;4.67;;;9.60;99.90;;;;;;5052020;28;20207;-73
2021/05/26 00:35:39;;;;;;;8.80;5.80;;;9.50;99.90;;;;;;5052497;28;20238;-74
2021/05/26 00:38:05;;;;;;;7.83;5.63;;;9.60;99.90;;;;;;5050682;28;20199;-74
2021/05/26 00:40:31;;;;;;;6.00;5.20;;;9.50;99.90;;;;;;5050998;28;20207;-74
2021/05/26 00:42:59;;;;;;;7.00;5.37;;;9.60;99.90;;;;;;5050736;28;20195;-74
2021/05/26 00:45:26;;;;;;;7.77;5.90;;;9.50;99.90;;;;;;5052648;28;20207;-74
2021/05/26 00:47:53;;;;;;;8.43;6.27;;;9.50;99.90;;;;;;5052178;28;20201;-74
2021/05/26 00:50:21;;;;;;;8.43;6.03;;;9.60;99.90;;;;;;5051449;28;20207;-74
2021/05/26 00:52:48;;;;;;;8.23;6.10;;;9.60;99.90;;;;;;5052355;28;20199;-73
2021/05/26 00:55:16;;;;;;;7.73;6.20;;;9.60;99.90;;;;;;5052024;28;20699;-74
2021/05/26 00:57:44;;;;;;;8.13;5.97;;;9.70;99.90;;;;;;5052567;28;20235;-74
2021/05/26 01:00:14;;;;;;;7.17;5.60;;;9.70;99.90;;;;;;5050577;28;20210;-74
2021/05/26 01:02:41;;;;;;;8.40;5.93;;;9.70;99.90;;;;;;5051832;28;20203;-74
2021/05/26 01:05:09;;;;;;;7.77;5.83;;;9.60;99.90;;;;;;5051060;28;20644;-74
2021/05/26 01:07:35;;;;;;;8.90;6.10;;;9.70;99.90;;;;;;5051860;28;20195;-74
2021/05/26 01:10:02;;;;;;;11.73;7.83;;;9.70;99.90;;;;;;5049899;28;20191;-74
2021/05/26 01:12:29;;;;;;;8.47;6.37;;;9.70;99.90;;;;;;5051564;28;20256;-73
2021/05/26 01:14:55;;;;;;;9.00;6.90;;;9.70;99.90;;;;;;5051770;28;20313;-74
2021/05/26 01:17:22;;;;;;;9.13;7.33;;;9.60;99.90;;;;;;5040810;28;20203;-74
2021/05/26 01:19:49;;;;;;;9.37;6.63;;;9.60;99.90;;;;;;5045589;28;20209;-74
2021/05/26 01:22:16;;;;;;;11.00;6.60;;;9.60;99.90;;;;;;5051712;28;20663;-74
2021/05/26 01:24:42;;;;;;;9.17;6.93;;;9.60;99.90;;;;;;5052380;28;20205;-74
2021/05/26 01:27:09;;;;;;;9.13;6.77;;;9.60;99.90;;;;;;5049151;28;20574;-74
2021/05/26 01:29:35;;;;;;;8.70;6.53;;;9.50;99.90;;;;;;5051325;28;20213;-74
2021/05/26 01:32:02;;;;;;;10.47;6.77;;;9.50;99.90;;;;;;5050462;28;20218;-73
2021/05/26 01:34:28;;;;;;;7.47;6.47;;;9.50;99.90;;;;;;5051900;28;20695;-74
2021/05/26 01:36:54;;;;;;;10.63;7.43;;;9.50;99.90;;;;;;5050413;28;20226;-74
2021/05/26 01:39:22;;;;;;;7.93;6.30;;;9.50;99.90;;;;;;5051738;28;20207;-74
2021/05/26 01:41:48;;;;;;;9.43;6.70;;;9.50;99.90;;;;;;5049933;28;20195;-73
2021/05/26 01:44:14;;;;;;;9.87;6.70;;;9.50;99.90;;;;;;5051659;28;20219;-74
2021/05/26 01:46:41;;;;;;;10.07;6.77;;;9.50;99.90;;;;;;5050660;28;20203;-74
2021/05/26 01:49:08;;;;;;;7.83;6.33;;;9.40;99.90;;;;;;5041437;28;20211;-74
2021/05/26 01:51:36;;;;;;;7.57;6.67;;;9.50;99.90;;;;;;5043400;28;20199;-74
2021/05/26 01:54:03;;;;;;;8.77;7.07;;;9.50;99.90;;;;;;5049743;28;20203;-74
2021/05/26 01:56:31;;;;;;;10.03;7.33;;;9.50;99.90;;;;;;5041726;28;20207;-74
2021/05/26 01:58:59;;;;;;;9.87;7.20;;;9.50;99.90;;;;;;5049526;28;20552;-74
2021/05/26 02:01:26;;;;;;;12.60;8.40;;;9.50;99.90;;;;;;5047104;28;20749;-74
2021/05/26 02:03:53;;;;;;;10.43;7.50;;;9.40;99.90;;;;;;5043318;28;20203;-74
2021/05/26 02:06:21;;;;;;;9.40;7.80;;;9.50;99.90;;;;;;5049720;28;20209;-74
2021/05/26 02:08:50;;;;;;;11.50;8.17;;;9.50;99.90;;;;;;5048085;28;20199;-74
2021/05/26 02:14:04;;;;;;;13.93;8.50;;;9.50;99.90;;;;;;5040533;28;20294;-74
2021/05/26 02:16:31;;;;;;;11.80;8.37;;;9.40;99.90;;;;;;5042417;28;20690;-74
2021/05/26 02:18:57;;;;;;;10.67;8.30;;;9.50;99.90;;;;;;5043788;28;20203;-74
2021/05/26 02:21:24;;;;;;;13.03;9.50;;;9.50;99.90;;;;;;5047523;28;20199;-74
2021/05/26 02:23:50;;;;;;;12.73;9.17;;;9.50;99.90;;;;;;5050855;28;20214;-74
2021/05/26 02:26:16;;;;;;;15.57;10.20;;;9.50;99.90;;;;;;5048845;28;20229;-74
2021/05/26 02:28:43;;;;;;;17.70;10.77;;;9.50;99.90;;;;;;5049261;28;20273;-74
2021/05/26 02:31:11;;;;;;;15.30;10.13;;;9.50;99.90;;;;;;5049200;28;20609;-74
2021/05/26 02:33:38;;;;;;;13.87;10.20;;;9.40;99.90;;;;;;5049647;28;20667;-74
2021/05/26 02:36:05;;;;;;;16.50;10.23;;;9.50;99.90;;;;;;5042574;28;20689;-74
2021/05/26 02:38:33;;;;;;;16.03;10.30;;;9.40;99.90;;;;;;5046711;28;20199;-73
2021/05/26 02:41:00;;;;;;;13.93;10.23;;;9.40;99.90;;;;;;5047184;28;20202;-74
2021/05/26 02:43:26;;;;;;;15.20;11.50;;;9.50;99.90;;;;;;5044812;28;20210;-74
2021/05/26 02:45:53;;;;;;;12.87;9.90;;;9.40;99.90;;;;;;5049689;28;20199;-74
2021/05/26 02:48:20;;;;;;;13.47;9.90;;;9.40;99.90;;;;;;5048240;28;20207;-74
2021/05/26 02:50:47;;;;;;;13.87;10.40;;;9.40;99.90;;;;;;5048488;28;20209;-74
2021/05/26 02:53:13;;;;;;;13.83;10.00;;;9.40;99.90;;;;;;5049591;28;20231;-74
2021/05/26 02:55:40;;;;;;;15.67;10.40;;;9.40;99.90;;;;;;5048703;28;20222;-74
2021/05/26 02:58:06;;;;;;;12.47;8.77;;;9.40;99.90;;;;;;5048800;28;20616;-74
2021/05/26 03:00:32;;;;;;;12.43;8.97;;;9.40;99.90;;;;;;5050451;28;20611;-74
2021/05/26 03:03:00;;;;;;;12.13;8.63;;;9.30;99.90;;;;;;5047851;28;20209;-74
2021/05/26 03:05:27;;;;;;;15.93;9.20;;;9.40;99.90;;;;;;5050104;28;20229;-74
2021/05/26 03:07:53;;;;;;;11.77;8.57;;;9.40;99.90;;;;;;5050056;28;20195;-74
2021/05/26 03:10:20;;;;;;;11.23;8.70;;;9.40;99.90;;;;;;5052776;28;20198;-74
2021/05/26 03:12:46;;;;;;;11.13;8.37;;;9.50;99.90;;;;;;5053516;28;20183;-74
2021/05/26 03:15:15;;;;;;;13.33;8.97;;;9.40;99.90;;;;;;5054671;28;20237;-74
2021/05/26 03:17:42;;;;;;;11.23;8.43;;;9.50;99.90;;;;;;5052678;28;20211;-74
2021/05/26 03:20:13;;;;;;;12.80;8.37;;;9.50;99.90;;;;;;5053057;28;20195;-74
2021/05/26 03:22:41;;;;;;;10.87;8.00;;;9.50;99.90;;;;;;5035218;28;20633;-74
2021/05/26 03:25:09;;;;;;;14.23;8.93;;;9.50;99.90;;;;;;5048606;28;20205;-74
2021/05/26 03:27:36;;;;;;;12.23;9.13;;;9.50;99.90;;;;;;5048372;28;20203;-74
2021/05/26 03:30:05;;;;;;;14.20;9.37;;;9.50;99.90;;;;;;5047210;28;20539;-74
2021/05/26 03:32:32;;;;;;;12.13;8.30;;;9.50;99.90;;;;;;5052471;28;20199;-74
2021/05/26 03:34:58;;;;;;;12.53;9.13;;;9.50;99.90;;;;;;5033212;28;20230;-74
2021/05/26 03:37:24;;;;;;;16.70;9.57;;;9.50;99.90;;;;;;5050758;28;20206;-73
2021/05/26 03:39:51;;;;;;;14.23;9.20;;;9.50;99.90;;;;;;5052942;28;20211;-74
2021/05/26 03:42:18;;;;;;;12.87;8.97;;;9.40;99.90;;;;;;5052914;28;20208;-74
2021/05/26 03:44:47;;;;;;;15.47;10.50;;;9.40;99.90;;;;;;5054087;28;20264;-74
2021/05/26 03:47:14;;;;;;;14.73;8.20;;;9.40;99.90;;;;;;5053669;28;20207;-73
2021/05/26 03:49:41;;;;;;;15.83;9.10;;;9.30;99.90;;;;;;5053326;28;20202;-72
2021/05/26 03:52:07;;;;;;;13.50;8.23;;;9.30;99.90;;;;;;5054128;28;20199;-72
2021/05/26 03:54:34;;;;;;;14.43;8.00;;;9.30;99.90;;;;;;5053944;28;20698;-72
2021/05/26 03:57:02;;;;;;;13.10;7.97;;;9.30;99.90;;;;;;5052927;28;20205;-72
2021/05/26 03:59:29;;;;;;;14.57;8.60;;;9.30;99.90;;;;;;5054122;28;20649;-72
2021/05/26 04:01:55;;;;;;;11.53;8.97;;;9.30;99.90;;;;;;5040431;28;20639;-71
2021/05/26 04:04:22;;;;;;;14.60;8.10;;;9.40;99.90;;;;;;5048885;28;20195;-71
2021/05/26 04:06:49;;;;;;;11.67;7.50;;;9.30;99.90;;;;;;5042836;28;20215;-71
2021/05/26 04:09:15;;;;;;;13.03;7.80;;;9.40;99.90;;;;;;5045166;28;20200;-71
2021/05/26 04:11:42;;;;;;;11.43;7.53;;;9.30;99.90;;;;;;5052769;28;20203;-71
2021/05/26 04:14:09;;;;;;;16.07;7.80;;;9.30;99.90;;;;;;5049846;28;20207;-72
2021/05/26 04:16:36;;;;;;;12.17;7.73;;;9.40;99.90;;;;;;5053599;28;20203;-72
2021/05/26 04:19:02;;;;;;;12.97;7.97;;;9.40;99.90;;;;;;5049444;28;20214;-72
2021/05/26 04:21:30;;;;;;;12.97;8.73;;;9.40;99.90;;;;;;5051258;28;20207;-72
2021/05/26 04:23:57;;;;;;;11.03;8.33;;;9.30;99.90;;;;;;5051748;28;20214;-72
2021/05/26 04:26:23;;;;;;;15.70;8.80;;;9.40;99.90;;;;;;5052736;28;20207;-73
2021/05/26 04:28:50;;;;;;;13.50;9.13;;;9.50;99.90;;;;;;5052072;28;20244;-72
2021/05/26 04:31:18;;;;;;;12.87;8.30;;;9.40;99.90;;;;;;5051695;28;20203;-72
2021/05/26 04:33:44;;;;;;;16.13;9.07;;;9.40;99.90;;;;;;5040687;28;20553;-72
2021/05/26 04:36:11;;;;;;;14.33;9.10;;;9.50;99.90;;;;;;5049656;28;20680;-72
2021/05/26 04:38:37;;;;;;;12.23;8.17;;;9.50;99.90;;;;;;5052951;28;20210;-72
2021/05/26 04:41:05;;;;;;;14.43;8.33;;;9.60;99.90;;;;;;5050693;28;20669;-72
2021/05/26 04:43:33;;;;;;;10.37;7.93;;;9.60;99.90;;;;;;5051423;28;20205;-72
2021/05/26 04:46:00;;;;;;;12.90;7.77;;;9.60;99.90;;;;;;5051918;28;20660;-72
2021/05/26 04:48:29;;;;;;;12.53;7.73;;;9.60;99.90;;;;;;5051628;28;20601;-72
2021/05/26 04:50:55;;;;;;;13.17;8.20;;;9.60;99.90;;;;;;5050940;28;20661;-72
2021/05/26 04:53:22;;;;;;;14.97;8.20;;;9.70;99.90;;;;;;5051707;28;20202;-72
2021/05/26 04:55:49;;;;;;;11.27;7.60;;;9.70;99.90;;;;;;5056167;28;20615;-72
2021/05/26 04:58:15;;;;;;;12.13;7.73;;;9.80;99.90;;;;;;5068269;28;20661;-72
2021/05/26 05:00:42;;;;;;;12.73;7.83;;;9.90;99.90;;;;;;5052109;28;20199;-72
2021/05/26 05:03:08;;;;;;;13.50;8.00;;;10.00;99.90;;;;;;5051666;28;20199;-72
2021/05/26 05:05:36;;;;;;;11.77;7.30;;;9.90;99.90;;;;;;5052429;28;20834;-72
2021/05/26 05:08:05;;;;;;;9.63;6.57;;;10.00;99.90;;;;;;5051304;28;20667;-72
2021/05/26 05:10:32;;;;;;;15.17;7.50;;;10.10;99.90;;;;;;5031830;28;20258;-72
2021/05/26 05:12:58;;;;;;;14.00;6.67;;;10.10;99.90;;;;;;5044649;28;20215;-72
2021/05/26 05:15:25;;;;;;;12.67;7.10;;;10.10;99.90;;;;;;5051724;28;20273;-72
2021/05/26 05:17:52;;;;;;;11.90;6.10;;;10.10;99.90;;;;;;5051539;28;20645;-72
2021/05/26 05:20:20;;;;;;;11.97;6.10;;;10.00;99.90;;;;;;5052193;28;20195;-72
2021/05/26 05:22:48;;;;;;;11.20;6.30;;;10.10;99.90;;;;;;5051611;28;20203;-72
2021/05/26 05:25:15;;;;;;;9.73;5.50;;;10.20;99.90;;;;;;5052457;28;20401;-72
2021/05/26 05:27:42;;;;;;;12.07;5.17;;;10.20;99.90;;;;;;5051248;28;20230;-72
2021/05/26 05:30:10;;;;;;;14.50;6.00;;;10.30;99.90;;;;;;5051907;28;20203;-72
2021/05/26 05:32:36;;;;;;;10.43;5.50;;;10.30;99.90;;;;;;5051269;28;20641;-72
2021/05/26 05:35:04;;;;;;;7.17;5.37;;;10.30;99.90;;;;;;5052282;28;20211;-72
2021/05/26 05:37:31;;;;;;;11.17;5.97;;;10.40;99.90;;;;;;5051165;28;20253;-72
2021/05/26 05:39:59;;;;;;;8.30;5.20;;;10.30;99.90;;;;;;5050645;28;20195;-72
2021/05/26 05:42:27;;;;;;;9.23;5.00;;;10.30;99.90;;;;;;5048037;28;20253;-72
2021/05/26 05:44:54;;;;;;;10.97;4.70;;;10.40;99.90;;;;;;5051698;28;20214;-72
2021/05/26 05:47:20;;;;;;;9.57;5.07;;;10.50;99.90;;;;;;5050506;28;20203;-72
2021/05/26 05:49:47;;;;;;;8.07;4.60;;;10.60;99.90;;;;;;5051028;28;20250;-72
2021/05/26 05:52:13;;;;;;;6.73;4.10;;;10.50;99.90;;;;;;5051618;28;20203;-72
2021/05/26 05:54:40;;;;;;;7.67;4.77;;;10.60;99.90;;;;;;5051535;28;20292;-72
2021/05/26 05:57:08;;;;;;;10.73;5.00;;;10.60;99.90;;;;;;5051561;28;20206;-72
2021/05/26 05:59:34;;;;;;;9.73;4.57;;;10.60;99.90;;;;;;5051995;28;20202;-72
2021/05/26 06:02:01;;;;;;;13.27;4.97;;;10.80;99.90;;;;;;5050368;28;20199;-72
2021/05/26 06:04:28;;;;;;;8.30;5.07;;;11.00;99.90;;;;;;5050865;28;20202;-72
2021/05/26 06:06:54;;;;;;;9.10;5.53;;;11.20;99.90;;;;;;5049724;28;20199;-72
2021/05/26 06:09:21;;;;;;;10.27;5.20;;;11.20;99.90;;;;;;5051439;28;20723;-72
2021/05/26 06:11:48;;;;;;;8.97;4.83;;;11.10;99.90;;;;;;5050431;28;20248;-72
2021/05/26 06:14:18;;;;;;;8.63;5.03;;;10.90;99.90;;;;;;5051599;28;20206;-72
2021/05/26 06:16:45;;;;;;;9.13;5.20;;;10.90;99.90;;;;;;5050730;28;20207;-72
2021/05/26 06:19:11;;;;;;;8.87;4.93;;;10.90;99.90;;;;;;5051600;28;20199;-72
2021/05/26 06:21:38;;;;;;;6.90;4.67;;;10.80;99.90;;;;;;5050053;28;20227;-72
2021/05/26 06:24:05;;;;;;;11.00;4.83;;;10.90;99.90;;;;;;5051634;28;20231;-71
2021/05/26 06:26:32;;;;;;;10.27;5.60;;;10.90;99.90;;;;;;5050753;28;20648;-72
2021/05/26 06:29:00;;;;;;;10.53;5.20;;;11.00;99.90;;;;;;5050831;28;20204;-72
2021/05/26 06:31:28;;;;;;;11.07;5.27;;;11.20;99.90;;;;;;5050653;28;20203;-72
2021/05/26 06:33:54;;;;;;;8.00;4.97;;;11.40;99.90;;;;;;5050181;28;20195;-72
2021/05/26 06:36:21;;;;;;;10.13;5.77;;;11.40;99.90;;;;;;5049175;28;20246;-72
2021/05/26 06:38:48;;;;;;;11.30;5.57;;;11.40;99.90;;;;;;5050837;28;20210;-72
2021/05/26 06:41:15;;;;;;;13.40;5.87;;;11.40;99.90;;;;;;5036188;28;20653;-72
2021/05/26 06:43:41;;;;;;;13.63;5.73;;;11.60;99.90;;;;;;5054543;28;20657;-72
2021/05/26 06:46:07;;;;;;;10.50;5.43;;;11.50;99.90;;;;;;5054183;28;20215;-72
2021/05/26 06:48:35;;;;;;;12.93;5.40;;;11.70;99.90;;;;;;5054591;28;20195;-72
2021/05/26 06:51:02;;;;;;;12.17;5.03;;;11.90;99.90;;;;;;5053502;28;20199;-72
2021/05/26 06:53:30;;;;;;;10.07;4.77;;;11.80;99.90;;;;;;5055270;28;20202;-72
2021/05/26 06:55:56;;;;;;;10.13;5.63;;;11.80;99.90;;;;;;5053714;28;20227;-72
2021/05/26 06:58:23;;;;;;;10.33;4.47;;;11.80;99.90;;;;;;5055169;28;20210;-72
2021/05/26 07:00:49;;;;;;;10.03;4.93;;;11.70;99.90;;;;;;5053721;28;20195;-72
2021/05/26 07:03:16;;;;;;;8.90;4.90;;;11.60;99.90;;;;;;5053027;28;20214;-72
2021/05/26 07:05:44;;;;;;;9.97;4.87;;;11.60;99.90;;;;;;5054316;28;20638;-72
2021/05/26 07:08:10;;;;;;;10.40;4.80;;;11.60;99.90;;;;;;5054953;28;20214;-72
2021/05/26 07:10:38;;;;;;;10.27;5.47;;;11.70;99.90;;;;;;5054345;28;20195;-72
2021/05/26 07:13:04;;;;;;;9.03;5.30;;;11.70;99.90;;;;;;5054269;28;20214;-72
2021/05/26 07:15:31;;;;;;;9.47;5.13;;;11.90;99.90;;;;;;5054538;28;20705;-72
2021/05/26 07:18:02;;;;;;;13.97;5.33;;;11.90;99.90;;;;;;5053960;28;20196;-72
2021/05/26 07:20:29;;;;;;;9.37;5.10;;;11.90;99.90;;;;;;5053650;28;20235;-72
2021/05/26 07:22:56;;;;;;;10.40;4.93;;;12.00;99.90;;;;;;5049142;28;20252;-72
2021/05/26 07:25:23;;;;;;;7.53;4.80;;;12.10;99.90;;;;;;5053501;28;20281;-72
2021/05/26 07:27:49;;;;;;;9.37;5.17;;;12.10;99.90;;;;;;5047343;28;20199;-72
2021/05/26 07:30:17;;;;;;;12.20;4.57;;;12.10;99.90;;;;;;5057644;28;20257;-72
2021/05/26 07:32:44;;;;;;;9.73;5.00;;;12.10;99.90;;;;;;5054851;28;20210;-72
2021/05/26 07:35:11;;;;;;;8.63;4.87;;;12.10;99.90;;;;;;5071474;28;20241;-72
2021/05/26 07:37:39;;;;;;;10.27;5.13;;;12.20;99.90;;;;;;5052906;28;20195;-71
2021/05/26 07:40:08;;;;;;;11.60;4.80;;;12.30;99.90;;;;;;5054355;28;20272;-72
2021/05/26 07:42:35;;;;;;;8.90;5.20;;;12.20;99.90;;;;;;5053585;28;20722;-72
2021/05/26 07:45:02;;;;;;;7.50;5.30;;;12.20;99.90;;;;;;5053657;28;20207;-72
2021/05/26 07:47:29;;;;;;;10.10;5.30;;;12.10;99.90;;;;;;5053635;28;20214;-72
2021/05/26 07:49:55;;;;;;;9.33;4.90;;;11.90;99.90;;;;;;5060753;28;20207;-72
2021/05/26 07:52:22;;;;;;;11.27;5.13;;;12.00;99.90;;;;;;5053382;28;20203;-72
2021/05/26 07:54:49;;;;;;;11.50;5.20;;;12.10;99.90;;;;;;5064787;28;20258;-73
2021/05/26 07:57:17;;;;;;;10.70;5.03;;;12.10;99.90;;;;;;5053236;28;20214;-72
2021/05/26 07:59:44;;;;;;;9.00;4.87;;;12.20;99.90;;;;;;5053153;28;20223;-73
2021/05/26 08:02:12;;;;;;;10.73;4.60;;;12.30;99.90;;;;;;5052262;28;20294;-72
2021/05/26 08:04:39;;;;;;;9.80;5.30;;;12.30;99.90;;;;;;5052735;28;20568;-72
2021/05/26 08:07:06;;;;;;;10.80;4.83;;;12.40;99.90;;;;;;5052217;28;20248;-72
2021/05/26 08:09:33;;;;;;;11.30;5.17;;;12.50;99.90;;;;;;5052763;28;20199;-72
2021/05/26 08:11:59;;;;;;;8.57;4.60;;;12.60;99.90;;;;;;5052880;28;20199;-73
2021/05/26 08:14:27;;;;;;;8.70;5.03;;;12.70;99.90;;;;;;5053526;28;20199;-72
2021/05/26 08:16:53;;;;;;;12.60;5.03;;;12.70;99.90;;;;;;5052485;28;20200;-72
2021/05/26 08:19:20;;;;;;;10.63;4.93;;;12.60;99.90;;;;;;5053560;28;20203;-72
2021/05/26 08:21:46;;;;;;;8.30;4.57;;;12.70;99.90;;;;;;5052510;28;20203;-72
2021/05/26 08:24:12;;;;;;;13.13;4.77;;;12.70;99.90;;;;;;5053720;28;20199;-72
2021/05/26 08:26:39;;;;;;;9.03;4.77;;;12.70;99.90;;;;;;5052196;28;20253;-72
2021/05/26 08:29:06;;;;;;;9.17;4.73;;;12.70;99.90;;;;;;5051612;28;20214;-72
2021/05/26 08:31:33;;;;;;;6.87;4.17;;;12.90;99.90;;;;;;5052724;28;20596;-72
2021/05/26 08:34:00;;;;;;;13.73;4.63;;;12.80;99.90;;;;;;5053401;28;20207;-72
2021/05/26 08:36:26;;;;;;;10.73;4.90;;;13.00;99.90;;;;;;5052679;28;20218;-72
2021/05/26 08:38:53;;;;;;;10.07;5.10;;;12.90;99.90;;;;;;5053117;28;20210;-72
2021/05/26 08:41:21;;;;;;;5.70;4.47;;;12.80;99.90;;;;;;5052598;28;20660;-73
2021/05/26 08:43:48;;;;;;;10.53;4.50;;;13.00;99.90;;;;;;5052808;28;20294;-72
2021/05/26 08:46:14;;;;;;;7.43;4.73;;;13.20;99.90;;;;;;5052481;28;20225;-73
2021/05/26 08:48:42;;;;;;;10.83;5.17;;;13.40;99.90;;;;;;5052198;28;20199;-73
2021/05/26 08:51:10;;;;;;;10.43;5.30;;;13.40;99.90;;;;;;5047399;28;20203;-73
2021/05/26 08:53:37;;;;;;;14.17;4.90;;;13.40;99.90;;;;;;5052897;28;20203;-72
2021/05/26 08:56:05;;;;;;;11.50;5.00;;;13.40;99.90;;;;;;5051744;28;20308;-72
2021/05/26 08:58:38;;;;;;;8.03;4.53;;;13.60;99.90;;;;;;5052781;28;20702;-72
2021/05/26 09:01:04;;;;;;;10.73;5.33;;;13.80;99.90;;;;;;5051625;28;20283;-72
2021/05/26 09:03:31;;;;;;;7.80;4.03;;;13.80;99.90;;;;;;5061462;28;20202;-72
2021/05/26 09:05:59;;;;;;;10.67;4.53;;;13.60;99.90;;;;;;5068314;28;20218;-73
2021/05/26 09:08:26;;;;;;;6.80;4.50;;;13.60;99.90;;;;;;5052149;28;20606;-73
2021/05/26 09:10:56;;;;;;;6.17;4.30;;;13.60;99.90;;;;;;5051914;28;20199;-72
2021/05/26 09:13:30;;;;;;;6.00;4.50;;;13.50;99.90;;;;;;5052201;28;20645;-72
2021/05/26 09:15:56;;;;;;;7.87;4.27;;;13.90;99.90;;;;;;5047405;28;20234;-72
2021/05/26 09:18:23;;;;;;;6.97;4.17;;;13.90;99.90;;;;;;5050380;28;20203;-72
2021/05/26 09:20:50;;;;;;;7.93;4.17;;;14.10;99.90;;;;;;5046773;28;20257;-73
2021/05/26 09:23:26;;;;;;;7.77;4.03;;;13.90;99.90;;;;;;5051633;28;20680;-72
2021/05/26 09:25:55;;;;;;;8.17;4.53;;;13.90;99.90;;;;;;5050604;28;20198;-72
2021/05/26 09:28:28;;;;;;;6.83;3.20;;;13.70;99.90;;;;;;5052348;28;20264;-72
2021/05/26 09:31:01;;;;;;;7.33;2.83;;;13.50;99.90;;;;;;5051870;28;20211;-72
2021/05/26 09:33:36;;;;;;;4.27;3.00;;;13.60;99.90;;;;;;5052082;28;20260;-72
2021/05/26 09:36:18;;;;;;;3.13;2.83;;;13.60;99.90;;;;;;5052232;28;20603;-72
2021/05/26 09:38:48;;;;;;;5.77;3.60;;;13.40;99.90;;;;;;5051153;28;20599;-72
2021/05/26 09:41:19;;;;;;;5.63;3.50;;;13.30;99.90;;;;;;5051141;28;20241;-72
2021/05/26 09:43:50;;;;;;;4.23;3.40;;;13.30;99.90;;;;;;5052427;28;20687;-73
2021/05/26 09:46:28;;;;;;;5.30;3.77;;;13.50;99.90;;;;;;5051529;28;20732;-72
2021/05/26 09:49:09;;;;;;;5.23;3.60;;;13.60;99.90;;;;;;5051738;28;20213;-72
2021/05/26 09:51:38;;;;;;;5.57;3.63;;;13.70;99.90;;;;;;5051620;28;20207;-72
2021/05/26 09:54:26;;;;;;;5.57;3.63;;;14.20;99.90;;;;;;5051596;28;20199;-73
2021/05/26 09:56:54;;;;;;;5.13;3.70;;;14.40;99.90;;;;;;5045964;28;20222;-72
2021/05/26 09:59:22;;;;;;;5.50;3.03;;;14.30;99.90;;;;;;5051537;28;20203;-72
2021/05/26 10:01:53;;;;;;;7.63;3.30;;;14.00;99.90;;;;;;5043670;28;20199;-72
2021/05/26 10:04:21;;;;;;;4.77;3.10;;;13.90;99.90;;;;;;5051160;28;20249;-72
2021/05/26 10:06:49;;;;;;;4.43;2.70;;;13.70;99.90;;;;;;5048047;28;20273;-72
2021/05/26 10:09:18;;;;;;;3.57;2.80;;;14.00;99.90;;;;;;5051132;28;20284;-72
2021/05/26 10:11:46;;;;;;;4.87;3.10;;;14.10;99.90;;;;;;5047892;28;20198;-72
2021/05/26 10:14:12;;;;;;;4.40;2.60;;;14.30;99.90;;;;;;5036223;28;20606;-72
2021/05/26 10:16:42;;;;;;;5.93;3.23;;;14.60;99.90;;;;;;5038258;28;20222;-73
2021/05/26 10:19:09;;;;;;;2.73;2.53;;;14.60;99.90;;;;;;5044918;28;20211;-73
2021/05/26 10:21:37;;;;;;;2.43;2.20;;;14.90;99.90;;;;;;5046869;28;20661;-72
2021/05/26 10:24:06;;;;;;;3.03;2.50;;;15.90;99.90;;;;;;5054534;28;20260;-73
2021/05/26 10:27:01;;;;;;;4.97;2.20;;;16.30;99.90;;;;;;5053921;28;20203;-72
2021/05/26 10:29:35;;;;;;;5.23;2.53;;;16.00;99.90;;;;;;5055518;28;20758;-72
2021/05/26 10:32:04;;;;;;;3.43;1.83;;;16.50;99.90;;;;;;5055182;28;20216;-72
2021/05/26 10:35:06;;;;;;;3.53;1.77;;;16.80;99.90;;;;;;5051878;28;20210;-73
2021/05/26 10:37:35;;;;;;;3.75;2.13;;;17.50;99.90;;;;;;5052732;28;20207;-73
2021/05/26 10:40:22;;;;;;;1.88;1.75;;;16.90;99.90;;;;;;5054860;28;20608;-73
2021/05/26 10:42:49;;;;;;;2.87;2.17;;;17.40;99.90;;;;;;5048668;28;20207;-72
2021/05/26 10:45:19;;;;;;;3.25;2.13;;;17.80;99.90;;;;;;5052542;28;20218;-73
2021/05/26 10:47:47;;;;;;;3.95;2.08;;;16.50;99.90;;;;;;5054311;28;20203;-72
2021/05/26 10:50:20;;;;;;;4.20;2.07;;;15.90;99.90;;;;;;5051278;28;20214;-72
2021/05/26 10:53:23;;;;;;;3.43;1.90;;;16.20;99.90;;;;;;5061648;28;20655;-72
2021/05/26 10:55:52;;;;;;;3.10;2.20;;;16.10;99.90;;;;;;5047233;28;20687;-73
2021/05/26 10:58:20;;;;;;;3.80;1.90;;;16.60;99.90;;;;;;5053326;28;20203;-73
2021/05/26 11:00:49;;;;;;;3.80;2.10;;;16.40;99.90;;;;;;5049920;28;20236;-73
2021/05/26 11:03:40;;;;;;;6.20;2.20;;;16.10;99.90;;;;;;5054584;28;20239;-73
2021/05/26 11:06:37;;;;;;;3.60;1.87;;;16.20;99.90;;;;;;5054263;28;20306;-73
2021/05/26 11:09:07;;;;;;;3.97;1.97;;;16.70;99.90;;;;;;5062467;28;20194;-73
2021/05/26 11:11:51;;;;;;;3.90;2.05;;;17.00;99.90;;;;;;5058055;28;20199;-73
2021/05/26 11:14:33;;;;;;;3.85;2.45;;;17.40;99.90;;;;;;5034649;28;20312;-73
2021/05/26 11:17:21;;;;;;;12.00;6.22;;;16.40;99.90;;;;;;5040410;28;20262;-72
2021/05/26 11:19:48;;;;;;;3.57;2.50;;;16.40;99.90;;;;;;5072507;28;20260;-72
2021/05/26 11:24:44;;;;;;;3.58;2.78;;;16.00;99.90;;;;;;5003493;28;20212;-67
2021/05/26 11:27:16;;;;;;;3.83;2.60;;;16.10;99.90;;;;;;5002249;28;20212;-67
2021/05/26 11:29:44;;;;;;;4.93;2.67;;;16.00;99.90;;;;;;5004017;28;20200;-67
2021/05/26 11:32:12;;;;;;;7.13;3.83;;;15.80;99.90;;;;;;5005725;28;20671;-67
2021/05/26 11:37:10;;;;;;;3.00;1.50;;;16.00;99.90;;;;;;5073390;22;20291;-72
2021/05/26 11:39:38;;;;;;;2.73;1.60;;;16.00;99.90;;;;;;5073251;28;20546;-72
2021/05/26 11:42:09;;;;;;;1.77;1.30;;;16.00;99.90;;;;;;5073675;28;20210;-72
2021/05/26 11:44:36;;;;;;;2.33;1.47;;;15.80;99.90;;;;;;5072162;28;20221;-72
2021/05/26 11:47:03;;;;;;;3.22;1.55;;;15.70;99.90;;;;;;5073099;28;20202;-72
2021/05/26 11:49:33;;;;;;;3.63;1.80;;;15.50;99.90;;;;;;5053057;28;20690;-72
2021/05/26 11:52:04;;;;;;;2.15;1.50;;;15.30;99.90;;;;;;5070079;28;20210;-72
2021/05/26 11:54:30;;;;;;;5.53;2.23;;;15.30;99.90;;;;;;5072533;28;20545;-72
2021/05/26 11:57:03;;;;;;;2.40;1.60;;;15.30;99.90;;;;;;5070415;28;20229;-72
2021/05/26 11:59:29;;;;;;;3.87;1.73;;;15.40;99.90;;;;;;5060331;28;20202;-72
2021/05/26 12:01:56;;;;;;;2.30;1.60;;;15.50;99.90;;;;;;5072585;28;20206;-72
2021/05/26 12:04:23;;;;;;;5.70;2.10;;;15.30;99.90;;;;;;5073663;28;20198;-72
2021/05/26 12:06:50;;;;;;;4.30;2.27;;;15.40;99.90;;;;;;5073828;28;20315;-72
2021/05/26 12:09:30;;;;;;;3.13;1.70;;;16.40;99.90;;;;;;5072603;28;20289;-72
2021/05/26 12:11:57;;;;;;;1.90;1.43;;;16.20;99.90;;;;;;5072409;28;20198;-73
2021/05/26 12:14:29;;;;;;;1.83;1.40;;;16.50;99.90;;;;;;5071919;28;20203;-72
2021/05/26 12:16:55;;;;;;;1.60;1.50;;;16.50;99.90;;;;;;5069742;28;20241;-72
2021/05/26 12:19:29;;;;;;;1.60;1.50;;;16.40;99.90;;;;;;5068326;28;20610;-72
2021/05/26 12:22:10;;;;;;;3.30;1.60;;;16.30;99.90;;;;;;5070868;28;20214;-72
2021/05/26 12:24:55;;;;;;;3.72;2.05;;;16.30;99.90;;;;;;5067533;28;20206;-72
2021/05/26 12:27:42;;;;;;;3.45;1.70;;;16.60;99.90;;;;;;5060925;28;20238;-71
2021/05/26 12:30:25;;;;;;;2.13;1.60;;;16.40;99.90;;;;;;5058472;28;20210;-72
2021/05/26 12:32:54;;;;;;;2.85;2.00;;;16.10;99.90;;;;;;5067593;28;20248;-72
2021/05/26 12:35:24;;;;;;;2.75;1.60;;;16.10;99.90;;;;;;5065967;28;20218;-72
2021/05/26 12:37:52;;;;;;;2.07;1.67;;;16.10;99.90;;;;;;5048493;28;20199;-72
2021/05/26 12:40:31;;;;;;;2.03;1.37;;;16.50;99.90;;;;;;5044860;28;20213;-72
2021/05/26 12:42:58;;;;;;;4.63;1.70;;;16.90;99.90;;;;;;5024796;28;20539;-72
2021/05/26 12:45:29;;;;;;;2.83;1.70;;;17.00;99.90;;;;;;5051744;28;20203;-72
2021/05/26 12:47:57;;;;;;;1.60;1.50;;;16.60;99.90;;;;;;5048024;28;20238;-72
2021/05/26 12:50:27;;;;;;;1.60;1.40;;;16.60;99.90;;;;;;5046804;28;20199;-72
2021/05/26 12:53:05;;;;;;;2.30;1.35;;;16.70;99.90;;;;;;5046408;28;20575;-72
2021/05/26 12:55:33;;;;;;;4.32;1.80;;;16.50;99.90;;;;;;5041531;28;20707;-72
2021/05/26 12:58:04;;;;;;;1.30;1.20;;;16.60;99.90;;;;;;5044148;28;20221;-72
2021/05/26 13:00:32;;;;;;;1.35;1.25;;;17.00;99.90;;;;;;5044429;28;20211;-72